sensor_id;sensor_type;location;lat;lon;timestamp;noise_LAeq;noise_LA_min;noise_LA_max;noise_LA01;noise_LA95
50333;Laerm;36239;48.132;-1.210;2023-03-01T00:02:02;38.50;34.31;42.09;;
50333;Laerm;36239;48.132;-1.210;2023-03-01T00:04:28;38.55;34.31;45.17;;
50333;Laerm;36239;48.132;-1.210;2023-03-01T00:06:54;38.48;33.90;47.12;;
50333;Laerm;36239;48.132;-1.210;2023-03-01T00:09:20;38.19;33.44;44.90;;
50333;Laerm;36239;48.132;-1.210;2023-03-01T00:11:46;44.31;35.04;67.99;;
50333;Laerm;36239;48.132;-1.210;2023-03-01T00:14:12;39.06;34.31;44.87;;
50333;Laerm;36239;48.132;-1.210;2023-03-01T00:16:39;40.61;35.04;59.08;;
50333;Laerm;36239;48.132;-1.210;2023-03-01T00:19:06;41.09;32.35;60.86;;
50333;Laerm;36239;48.132;-1.210;2023-03-01T00:21:33;39.54;34.31;55.75;;
50333;Laerm;36239;48.132;-1.210;2023-03-01T00:24:01;39.50;33.09;57.08;;
50333;Laerm;36239;48.132;-1.210;2023-03-01T00:26:27;40.06;34.31;64.86;;
50333;Laerm;36239;48.132;-1.210;2023-03-01T00:28:54;38.32;33.44;51.17;;
50333;Laerm;36239;48.132;-1.210;2023-03-01T00:31:22;39.14;33.90;56.65;;
50333;Laerm;36239;48.132;-1.210;2023-03-01T00:33:48;43.33;32.93;67.06;;
50333;Laerm;36239;48.132;-1.210;2023-03-01T00:36:14;39.02;33.55;57.37;;
50333;Laerm;36239;48.132;-1.210;2023-03-01T00:38:44;42.29;33.90;65.93;;
50333;Laerm;36239;48.132;-1.210;2023-03-01T00:41:11;38.94;34.31;53.42;;
50333;Laerm;36239;48.132;-1.210;2023-03-01T00:43:37;39.63;34.31;65.45;;
50333;Laerm;36239;48.132;-1.210;2023-03-01T00:46:05;39.17;33.90;51.06;;
50333;Laerm;36239;48.132;-1.210;2023-03-01T00:48:32;39.98;35.04;57.15;;
50333;Laerm;36239;48.132;-1.210;2023-03-01T00:51:03;40.56;35.04;62.85;;
50333;Laerm;36239;48.132;-1.210;2023-03-01T00:53:29;41.17;36.69;54.50;;
50333;Laerm;36239;48.132;-1.210;2023-03-01T00:55:56;47.21;35.66;72.53;;
50333;Laerm;36239;48.132;-1.210;2023-03-01T00:58:22;40.72;35.36;60.10;;
50333;Laerm;36239;48.132;-1.210;2023-03-01T01:00:48;42.20;33.44;64.04;;
50333;Laerm;36239;48.132;-1.210;2023-03-01T01:03:14;39.05;33.44;58.35;;
50333;Laerm;36239;48.132;-1.210;2023-03-01T01:05:40;44.05;33.90;71.46;;
50333;Laerm;36239;48.132;-1.210;2023-03-01T01:08:06;43.76;33.90;67.54;;
50333;Laerm;36239;48.132;-1.210;2023-03-01T01:10:35;39.54;32.93;55.79;;
50333;Laerm;36239;48.132;-1.210;2023-03-01T01:13:02;49.11;33.44;76.02;;
50333;Laerm;36239;48.132;-1.210;2023-03-01T01:15:28;51.86;33.90;76.98;;
50333;Laerm;36239;48.132;-1.210;2023-03-01T01:17:54;49.99;33.44;73.33;;
50333;Laerm;36239;48.132;-1.210;2023-03-01T01:20:20;42.71;31.68;64.05;;
50333;Laerm;36239;48.132;-1.210;2023-03-01T01:22:46;54.99;33.44;80.80;;
50333;Laerm;36239;48.132;-1.210;2023-03-01T01:25:12;43.24;35.36;64.71;;
50333;Laerm;36239;48.132;-1.210;2023-03-01T01:27:38;43.86;35.04;63.44;;
50333;Laerm;36239;48.132;-1.210;2023-03-01T01:30:04;46.82;35.04;72.88;;
50333;Laerm;36239;48.132;-1.210;2023-03-01T01:32:30;53.81;33.90;83.43;;
50333;Laerm;36239;48.132;-1.210;2023-03-01T01:34:56;44.41;35.04;68.73;;
50333;Laerm;36239;48.132;-1.210;2023-03-01T01:37:22;55.47;35.04;78.86;;
50333;Laerm;36239;48.132;-1.210;2023-03-01T01:39:48;50.38;33.90;76.65;;
50333;Laerm;36239;48.132;-1.210;2023-03-01T01:42:15;46.63;34.69;73.86;;
50333;Laerm;36239;48.132;-1.210;2023-03-01T01:44:42;40.55;33.44;59.94;;
50333;Laerm;36239;48.132;-1.210;2023-03-01T01:47:16;43.04;35.04;65.49;;
50333;Laerm;36239;48.132;-1.210;2023-03-01T01:49:44;41.74;35.66;67.83;;
50333;Laerm;36239;48.132;-1.210;2023-03-01T01:54:39;40.93;32.35;63.23;;
50333;Laerm;36239;48.132;-1.210;2023-03-01T01:57:07;46.62;34.69;76.98;;
50333;Laerm;36239;48.132;-1.210;2023-03-01T01:59:34;46.39;35.66;74.47;;
50333;Laerm;36239;48.132;-1.210;2023-03-01T02:02:02;42.51;35.04;65.43;;
50333;Laerm;36239;48.132;-1.210;2023-03-01T02:04:29;42.20;34.31;64.74;;
50333;Laerm;36239;48.132;-1.210;2023-03-01T02:06:58;40.96;34.69;64.18;;
50333;Laerm;36239;48.132;-1.210;2023-03-01T02:09:27;39.74;33.90;56.92;;
50333;Laerm;36239;48.132;-1.210;2023-03-01T02:11:53;40.81;34.69;57.77;;
50333;Laerm;36239;48.132;-1.210;2023-03-01T02:14:19;40.82;34.69;61.43;;
50333;Laerm;36239;48.132;-1.210;2023-03-01T02:16:45;41.27;35.04;60.60;;
50333;Laerm;36239;48.132;-1.210;2023-03-01T02:19:14;40.28;34.31;61.37;;
50333;Laerm;36239;48.132;-1.210;2023-03-01T02:21:54;42.96;34.31;65.73;;
50333;Laerm;36239;48.132;-1.210;2023-03-01T02:26:48;40.22;35.66;53.98;;
50333;Laerm;36239;48.132;-1.210;2023-03-01T02:29:16;39.47;32.93;48.54;;
50333;Laerm;36239;48.132;-1.210;2023-03-01T02:31:42;40.02;35.36;50.41;;
50333;Laerm;36239;48.132;-1.210;2023-03-01T02:34:26;41.14;34.69;63.55;;
50333;Laerm;36239;48.132;-1.210;2023-03-01T02:36:56;47.18;35.94;80.05;;
50333;Laerm;36239;48.132;-1.210;2023-03-01T02:39:30;43.72;35.04;67.86;;
50333;Laerm;36239;48.132;-1.210;2023-03-01T02:41:58;43.30;35.36;65.26;;
50333;Laerm;36239;48.132;-1.210;2023-03-01T02:44:25;40.02;34.31;62.50;;
50333;Laerm;36239;48.132;-1.210;2023-03-01T02:46:53;43.02;34.69;71.27;;
50333;Laerm;36239;48.132;-1.210;2023-03-01T02:49:22;49.08;34.31;75.24;;
50333;Laerm;36239;48.132;-1.210;2023-03-01T02:56:59;40.50;36.69;44.27;;
50333;Laerm;36239;48.132;-1.210;2023-03-01T02:59:30;40.52;35.94;49.73;;
50333;Laerm;36239;48.132;-1.210;2023-03-01T03:01:57;39.88;33.90;58.36;;
50333;Laerm;36239;48.132;-1.210;2023-03-01T03:04:23;39.71;33.44;58.42;;
50333;Laerm;36239;48.132;-1.210;2023-03-01T03:06:49;39.87;34.31;47.83;;
50333;Laerm;36239;48.132;-1.210;2023-03-01T03:09:16;38.95;33.90;47.57;;
50333;Laerm;36239;48.132;-1.210;2023-03-01T03:11:42;39.29;34.69;46.13;;
50333;Laerm;36239;48.132;-1.210;2023-03-01T03:14:12;40.50;35.04;58.51;;
50333;Laerm;36239;48.132;-1.210;2023-03-01T03:16:42;40.69;34.69;61.83;;
50333;Laerm;36239;48.132;-1.210;2023-03-01T03:19:09;38.98;33.44;58.27;;
50333;Laerm;36239;48.132;-1.210;2023-03-01T03:21:35;50.18;35.66;80.97;;
50333;Laerm;36239;48.132;-1.210;2023-03-01T03:24:01;43.93;35.36;68.77;;
50333;Laerm;36239;48.132;-1.210;2023-03-01T03:26:27;52.99;36.45;76.61;;
50333;Laerm;36239;48.132;-1.210;2023-03-01T03:28:53;43.16;35.66;68.82;;
50333;Laerm;36239;48.132;-1.210;2023-03-01T03:31:19;40.46;35.36;44.58;;
50333;Laerm;36239;48.132;-1.210;2023-03-01T03:33:45;41.53;37.32;59.35;;
50333;Laerm;36239;48.132;-1.210;2023-03-01T03:36:15;41.95;37.32;57.58;;
50333;Laerm;36239;48.132;-1.210;2023-03-01T03:38:43;42.42;36.69;62.23;;
50333;Laerm;36239;48.132;-1.210;2023-03-01T03:41:10;41.50;36.20;58.88;;
50333;Laerm;36239;48.132;-1.210;2023-03-01T03:43:36;43.75;37.87;64.38;;
50333;Laerm;36239;48.132;-1.210;2023-03-01T03:46:03;47.63;36.69;76.32;;
50333;Laerm;36239;48.132;-1.210;2023-03-01T03:48:32;44.43;35.94;71.24;;
50333;Laerm;36239;48.132;-1.210;2023-03-01T03:50:59;44.35;37.32;68.90;;
50333;Laerm;36239;48.132;-1.210;2023-03-01T03:53:25;43.18;35.04;64.68;;
50333;Laerm;36239;48.132;-1.210;2023-03-01T03:55:52;48.11;34.69;76.07;;
50333;Laerm;36239;48.132;-1.210;2023-03-01T03:58:19;43.47;35.66;66.11;;
50333;Laerm;36239;48.132;-1.210;2023-03-01T04:00:45;40.87;36.34;55.39;;
50333;Laerm;36239;48.132;-1.210;2023-03-01T04:03:12;44.28;35.66;65.59;;
50333;Laerm;36239;48.132;-1.210;2023-03-01T04:05:39;50.21;36.20;77.55;;
50333;Laerm;36239;48.132;-1.210;2023-03-01T04:08:06;43.22;34.31;66.78;;
50333;Laerm;36239;48.132;-1.210;2023-03-01T04:10:34;49.66;35.66;74.23;;
50333;Laerm;36239;48.132;-1.210;2023-03-01T04:13:00;43.18;36.20;69.41;;
50333;Laerm;36239;48.132;-1.210;2023-03-01T04:15:27;40.51;36.91;49.41;;
50333;Laerm;36239;48.132;-1.210;2023-03-01T04:17:54;44.45;36.45;71.21;;
50333;Laerm;36239;48.132;-1.210;2023-03-01T04:20:21;40.23;35.94;52.45;;
50333;Laerm;36239;48.132;-1.210;2023-03-01T04:22:57;40.81;36.45;45.42;;
50333;Laerm;36239;48.132;-1.210;2023-03-01T04:25:24;40.31;35.04;54.09;;
50333;Laerm;36239;48.132;-1.210;2023-03-01T04:27:50;44.38;37.52;66.71;;
50333;Laerm;36239;48.132;-1.210;2023-03-01T04:30:16;41.40;37.32;50.38;;
50333;Laerm;36239;48.132;-1.210;2023-03-01T04:32:42;41.20;36.45;52.60;;
50333;Laerm;36239;48.132;-1.210;2023-03-01T04:35:08;43.73;37.88;53.83;;
50333;Laerm;36239;48.132;-1.210;2023-03-01T04:37:34;43.26;37.70;53.45;;
50333;Laerm;36239;48.132;-1.210;2023-03-01T04:40:01;41.39;37.32;50.40;;
50333;Laerm;36239;48.132;-1.210;2023-03-01T04:42:38;41.02;36.69;52.01;;
50333;Laerm;36239;48.132;-1.210;2023-03-01T04:45:04;41.73;37.32;56.39;;
50333;Laerm;36239;48.132;-1.210;2023-03-01T04:47:39;41.47;36.69;58.12;;
50333;Laerm;36239;48.132;-1.210;2023-03-01T04:50:06;47.22;36.45;65.54;;
50333;Laerm;36239;48.132;-1.210;2023-03-01T04:52:32;43.96;36.91;66.61;;
50333;Laerm;36239;48.132;-1.210;2023-03-01T04:54:58;47.67;37.32;70.91;;
50333;Laerm;36239;48.132;-1.210;2023-03-01T04:57:24;42.91;36.45;63.99;;
50333;Laerm;36239;48.132;-1.210;2023-03-01T04:59:50;42.04;35.04;66.91;;
50333;Laerm;36239;48.132;-1.210;2023-03-01T05:02:16;41.46;35.36;60.92;;
50333;Laerm;36239;48.132;-1.210;2023-03-01T05:04:42;40.03;35.66;52.72;;
50333;Laerm;36239;48.132;-1.210;2023-03-01T05:07:08;41.91;36.45;63.16;;
50333;Laerm;36239;48.132;-1.210;2023-03-01T05:09:34;43.83;36.20;68.67;;
50333;Laerm;36239;48.132;-1.210;2023-03-01T05:12:00;46.42;35.36;69.98;;
50333;Laerm;36239;48.132;-1.210;2023-03-01T05:14:26;43.83;35.94;70.19;;
50333;Laerm;36239;48.132;-1.210;2023-03-01T05:16:52;44.48;37.32;72.05;;
50333;Laerm;36239;48.132;-1.210;2023-03-01T05:19:18;42.48;37.52;60.51;;
50333;Laerm;36239;48.132;-1.210;2023-03-01T05:21:48;50.60;34.69;75.62;;
50333;Laerm;36239;48.132;-1.210;2023-03-01T05:24:30;42.18;35.04;61.68;;
50333;Laerm;36239;48.132;-1.210;2023-03-01T05:26:56;41.30;35.94;56.92;;
50333;Laerm;36239;48.132;-1.210;2023-03-01T05:29:23;39.93;34.31;52.78;;
50333;Laerm;36239;48.132;-1.210;2023-03-01T05:31:53;45.64;35.36;67.71;;
50333;Laerm;36239;48.132;-1.210;2023-03-01T05:34:22;41.83;37.70;61.20;;
50333;Laerm;36239;48.132;-1.210;2023-03-01T05:36:48;41.95;37.70;55.93;;
50333;Laerm;36239;48.132;-1.210;2023-03-01T05:39:19;51.22;38.21;73.35;;
50333;Laerm;36239;48.132;-1.210;2023-03-01T05:41:46;44.21;38.05;67.40;;
50333;Laerm;36239;48.132;-1.210;2023-03-01T05:44:13;46.10;37.12;72.03;;
50333;Laerm;36239;48.132;-1.210;2023-03-01T05:46:39;43.74;37.32;61.87;;
50333;Laerm;36239;48.132;-1.210;2023-03-01T05:49:05;43.74;40.80;65.71;;
50333;Laerm;36239;48.132;-1.210;2023-03-01T05:51:31;43.11;40.13;59.45;;
50333;Laerm;36239;48.132;-1.210;2023-03-01T05:53:58;49.35;39.58;75.50;;
50333;Laerm;36239;48.132;-1.210;2023-03-01T05:56:24;46.59;38.60;72.81;;
50333;Laerm;36239;48.132;-1.210;2023-03-01T05:58:50;41.98;37.52;51.55;;
50333;Laerm;36239;48.132;-1.210;2023-03-01T06:01:16;42.98;37.88;67.03;;
50333;Laerm;36239;48.132;-1.210;2023-03-01T06:03:42;46.50;37.88;64.24;;
50333;Laerm;36239;48.132;-1.210;2023-03-01T06:06:08;49.52;37.32;65.09;;
50333;Laerm;36239;48.132;-1.210;2023-03-01T06:08:34;47.99;38.67;72.34;;
50333;Laerm;36239;48.132;-1.210;2023-03-01T06:11:00;46.55;38.81;76.80;;
50333;Laerm;36239;48.132;-1.210;2023-03-01T06:13:26;49.06;38.21;74.23;;
50333;Laerm;36239;48.132;-1.210;2023-03-01T06:15:52;44.10;38.81;55.97;;
50333;Laerm;36239;48.132;-1.210;2023-03-01T06:18:18;45.03;39.68;60.55;;
50333;Laerm;36239;48.132;-1.210;2023-03-01T06:20:44;45.15;39.70;60.71;;
50333;Laerm;36239;48.132;-1.210;2023-03-01T06:23:10;44.47;39.70;67.19;;
50333;Laerm;36239;48.132;-1.210;2023-03-01T06:25:36;44.30;40.43;56.85;;
50333;Laerm;36239;48.132;-1.210;2023-03-01T06:28:02;44.64;39.81;57.62;;
50333;Laerm;36239;48.132;-1.210;2023-03-01T06:30:30;44.34;40.62;54.39;;
50333;Laerm;36239;48.132;-1.210;2023-03-01T06:32:56;52.74;40.13;83.20;;
50333;Laerm;36239;48.132;-1.210;2023-03-01T06:35:26;55.91;40.71;84.78;;
50333;Laerm;36239;48.132;-1.210;2023-03-01T06:37:55;46.52;40.98;75.16;;
50333;Laerm;36239;48.132;-1.210;2023-03-01T06:40:21;46.57;40.23;67.07;;
50333;Laerm;36239;48.132;-1.210;2023-03-01T06:42:48;46.14;40.98;62.58;;
50333;Laerm;36239;48.132;-1.210;2023-03-01T06:45:18;48.46;41.61;66.86;;
50333;Laerm;36239;48.132;-1.210;2023-03-01T06:47:44;50.14;42.03;74.48;;
50333;Laerm;36239;48.132;-1.210;2023-03-01T06:50:10;49.41;42.71;64.31;;
50333;Laerm;36239;48.132;-1.210;2023-03-01T06:52:36;48.60;43.94;64.82;;
50333;Laerm;36239;48.132;-1.210;2023-03-01T06:55:03;49.91;43.29;71.81;;
50333;Laerm;36239;48.132;-1.210;2023-03-01T06:57:29;53.14;40.80;77.70;;
50333;Laerm;36239;48.132;-1.210;2023-03-01T06:59:55;45.25;40.71;61.21;;
50333;Laerm;36239;48.132;-1.210;2023-03-01T07:02:21;45.01;39.92;61.41;;
50333;Laerm;36239;48.132;-1.210;2023-03-01T07:04:48;48.47;42.47;59.78;;
50333;Laerm;36239;48.132;-1.210;2023-03-01T07:07:15;50.71;41.96;69.39;;
50333;Laerm;36239;48.132;-1.210;2023-03-01T07:09:41;44.18;41.14;54.54;;
50333;Laerm;36239;48.132;-1.210;2023-03-01T07:12:07;44.42;41.30;55.32;;
50333;Laerm;36239;48.132;-1.210;2023-03-01T07:14:33;44.17;40.89;54.94;;
50333;Laerm;36239;48.132;-1.210;2023-03-01T07:16:59;45.09;40.71;63.30;;
50333;Laerm;36239;48.132;-1.210;2023-03-01T07:19:25;46.07;40.89;66.60;;
50333;Laerm;36239;48.132;-1.210;2023-03-01T07:21:51;44.48;40.80;62.35;;
50333;Laerm;36239;48.132;-1.210;2023-03-01T07:24:17;51.71;40.71;66.42;;
50333;Laerm;36239;48.132;-1.210;2023-03-01T07:26:43;43.06;40.23;51.97;;
50333;Laerm;36239;48.132;-1.210;2023-03-01T07:29:09;43.74;39.81;64.05;;
50333;Laerm;36239;48.132;-1.210;2023-03-01T07:31:36;43.36;40.03;61.45;;
50333;Laerm;36239;48.132;-1.210;2023-03-01T07:34:02;44.47;40.23;62.46;;
50333;Laerm;36239;48.132;-1.210;2023-03-01T07:36:28;43.02;39.70;57.76;;
50333;Laerm;36239;48.132;-1.210;2023-03-01T07:38:54;44.14;40.80;62.55;;
50333;Laerm;36239;48.132;-1.210;2023-03-01T07:41:21;43.65;39.70;62.71;;
50333;Laerm;36239;48.132;-1.210;2023-03-01T07:43:47;46.43;41.68;64.70;;
50333;Laerm;36239;48.132;-1.210;2023-03-01T07:46:13;46.41;38.95;75.42;;
50333;Laerm;36239;48.132;-1.210;2023-03-01T07:48:39;43.04;39.58;53.65;;
50333;Laerm;36239;48.132;-1.210;2023-03-01T07:51:05;43.45;40.33;55.78;;
50333;Laerm;36239;48.132;-1.210;2023-03-01T07:53:32;44.15;40.89;59.29;;
50333;Laerm;36239;48.132;-1.210;2023-03-01T07:56:09;46.65;40.98;70.58;;
50333;Laerm;36239;48.132;-1.210;2023-03-01T07:58:36;42.82;39.70;50.19;;
50333;Laerm;36239;48.132;-1.210;2023-03-01T08:01:02;43.17;39.89;61.16;;
50333;Laerm;36239;48.132;-1.210;2023-03-01T08:03:28;55.37;38.74;81.36;;
50333;Laerm;36239;48.132;-1.210;2023-03-01T08:05:55;47.12;39.21;73.92;;
50333;Laerm;36239;48.132;-1.210;2023-03-01T08:08:21;44.97;39.34;67.15;;
50333;Laerm;36239;48.132;-1.210;2023-03-01T08:10:47;44.76;39.81;73.09;;
50333;Laerm;36239;48.132;-1.210;2023-03-01T08:13:13;43.14;39.70;55.24;;
50333;Laerm;36239;48.132;-1.210;2023-03-01T08:15:39;44.95;39.46;63.32;;
50333;Laerm;36239;48.132;-1.210;2023-03-01T08:18:05;45.32;39.70;65.29;;
50333;Laerm;36239;48.132;-1.210;2023-03-01T08:20:32;44.43;38.37;58.10;;
50333;Laerm;36239;48.132;-1.210;2023-03-01T08:22:58;63.04;39.34;94.16;;
50333;Laerm;36239;48.132;-1.210;2023-03-01T08:25:24;47.18;38.60;64.10;;
50333;Laerm;36239;48.132;-1.210;2023-03-01T08:27:50;45.36;38.37;64.02;;
50333;Laerm;36239;48.132;-1.210;2023-03-01T08:30:16;51.49;36.91;78.27;;
50333;Laerm;36239;48.132;-1.210;2023-03-01T08:32:42;46.66;38.67;68.40;;
50333;Laerm;36239;48.132;-1.210;2023-03-01T08:35:08;49.40;39.34;73.10;;
50333;Laerm;36239;48.132;-1.210;2023-03-01T08:37:34;58.96;38.05;82.37;;
50333;Laerm;36239;48.132;-1.210;2023-03-01T08:40:00;50.96;38.52;73.04;;
50333;Laerm;36239;48.132;-1.210;2023-03-01T08:42:26;66.77;38.81;91.82;;
50333;Laerm;36239;48.132;-1.210;2023-03-01T08:44:52;48.73;38.67;73.56;;
50333;Laerm;36239;48.132;-1.210;2023-03-01T08:47:18;52.70;37.88;82.41;;
50333;Laerm;36239;48.132;-1.210;2023-03-01T08:49:44;46.95;38.52;75.39;;
50333;Laerm;36239;48.132;-1.210;2023-03-01T08:52:10;45.32;38.18;73.58;;
50333;Laerm;36239;48.132;-1.210;2023-03-01T08:54:36;44.73;38.52;67.64;;
50333;Laerm;36239;48.132;-1.210;2023-03-01T08:57:02;57.78;38.21;84.98;;
50333;Laerm;36239;48.132;-1.210;2023-03-01T08:59:28;53.26;38.60;77.68;;
50333;Laerm;36239;48.132;-1.210;2023-03-01T09:01:55;44.32;38.18;70.02;;
50333;Laerm;36239;48.132;-1.210;2023-03-01T09:04:21;55.08;38.05;79.77;;
50333;Laerm;36239;48.132;-1.210;2023-03-01T09:06:47;42.83;38.21;59.40;;
50333;Laerm;36239;48.132;-1.210;2023-03-01T09:09:14;47.90;37.70;71.34;;
50333;Laerm;36239;48.132;-1.210;2023-03-01T09:11:41;54.46;37.70;82.96;;
50333;Laerm;36239;48.132;-1.210;2023-03-01T09:14:08;47.26;38.52;66.44;;
50333;Laerm;36239;48.132;-1.210;2023-03-01T09:16:34;42.05;37.52;56.44;;
50333;Laerm;36239;48.132;-1.210;2023-03-01T09:19:02;44.38;38.37;73.30;;
50333;Laerm;36239;48.132;-1.210;2023-03-01T09:21:28;42.34;38.21;57.52;;
50333;Laerm;36239;48.132;-1.210;2023-03-01T09:23:55;46.95;38.21;68.74;;
50333;Laerm;36239;48.132;-1.210;2023-03-01T09:26:22;55.80;38.21;83.98;;
50333;Laerm;36239;48.132;-1.210;2023-03-01T09:28:49;49.44;39.58;75.37;;
50333;Laerm;36239;48.132;-1.210;2023-03-01T09:31:15;45.40;39.34;67.91;;
50333;Laerm;36239;48.132;-1.210;2023-03-01T09:33:42;50.52;38.05;76.36;;
50333;Laerm;36239;48.132;-1.210;2023-03-01T09:36:13;42.12;38.05;57.59;;
50333;Laerm;36239;48.132;-1.210;2023-03-01T09:38:39;47.89;38.37;73.70;;
50333;Laerm;36239;48.132;-1.210;2023-03-01T09:41:09;50.64;38.81;78.16;;
50333;Laerm;36239;48.132;-1.210;2023-03-01T09:46:06;56.04;38.05;81.94;;
50333;Laerm;36239;48.132;-1.210;2023-03-01T09:48:40;50.05;37.88;79.38;;
50333;Laerm;36239;48.132;-1.210;2023-03-01T09:51:08;68.93;38.52;92.53;;
50333;Laerm;36239;48.132;-1.210;2023-03-01T09:53:38;60.27;38.37;91.76;;
50333;Laerm;36239;48.132;-1.210;2023-03-01T09:56:19;61.80;38.67;88.21;;
50333;Laerm;36239;48.132;-1.210;2023-03-01T09:58:54;54.26;38.52;77.91;;
50333;Laerm;36239;48.132;-1.210;2023-03-01T10:01:27;50.54;38.37;74.97;;
50333;Laerm;36239;48.132;-1.210;2023-03-01T10:04:03;52.41;38.21;76.30;;
50333;Laerm;36239;48.132;-1.210;2023-03-01T10:06:32;51.24;38.95;76.36;;
50333;Laerm;36239;48.132;-1.210;2023-03-01T10:08:58;60.87;38.81;86.81;;
50333;Laerm;36239;48.132;-1.210;2023-03-01T10:11:35;61.43;38.67;89.95;;
50333;Laerm;36239;48.132;-1.210;2023-03-01T10:16:54;66.12;39.34;91.33;;
50333;Laerm;36239;48.132;-1.210;2023-03-01T10:19:28;62.26;39.08;90.30;;
50333;Laerm;36239;48.132;-1.210;2023-03-01T10:21:57;60.86;39.70;92.08;;
50333;Laerm;36239;48.132;-1.210;2023-03-01T10:24:27;71.35;40.03;101.03;;
50333;Laerm;36239;48.132;-1.210;2023-03-01T10:26:58;63.11;40.62;88.29;;
50333;Laerm;36239;48.132;-1.210;2023-03-01T10:29:34;68.60;39.81;96.30;;
50333;Laerm;36239;48.132;-1.210;2023-03-01T10:32:03;64.43;39.34;92.25;;
50333;Laerm;36239;48.132;-1.210;2023-03-01T10:34:31;71.24;39.21;96.58;;
50333;Laerm;36239;48.132;-1.210;2023-03-01T10:37:01;70.87;39.70;101.15;;
50333;Laerm;36239;48.132;-1.210;2023-03-01T10:39:34;65.75;40.13;90.20;;
50333;Laerm;36239;48.132;-1.210;2023-03-01T10:42:01;56.69;38.37;80.10;;
50333;Laerm;36239;48.132;-1.210;2023-03-01T10:44:38;65.70;39.70;93.59;;
50333;Laerm;36239;48.132;-1.210;2023-03-01T10:47:05;61.35;39.46;86.61;;
50333;Laerm;36239;48.132;-1.210;2023-03-01T10:49:37;63.14;38.60;88.42;;
50333;Laerm;36239;48.132;-1.210;2023-03-01T10:52:11;77.73;38.95;101.07;;
50333;Laerm;36239;48.132;-1.210;2023-03-01T10:54:42;70.20;39.08;93.22;;
50333;Laerm;36239;48.132;-1.210;2023-03-01T10:57:30;66.06;38.95;90.39;;
50333;Laerm;36239;48.132;-1.210;2023-03-01T11:00:14;61.74;38.37;87.84;;
50333;Laerm;36239;48.132;-1.210;2023-03-01T11:02:42;62.35;39.21;92.10;;
50333;Laerm;36239;48.132;-1.210;2023-03-01T11:05:22;60.60;37.70;89.81;;
50333;Laerm;36239;48.132;-1.210;2023-03-01T11:07:54;56.54;38.67;82.67;;
50333;Laerm;36239;48.132;-1.210;2023-03-01T11:10:31;59.19;39.34;83.10;;
50333;Laerm;36239;48.132;-1.210;2023-03-01T11:13:14;67.67;38.81;92.52;;
50333;Laerm;36239;48.132;-1.210;2023-03-01T11:15:41;62.93;39.21;88.29;;
50333;Laerm;36239;48.132;-1.210;2023-03-01T11:18:18;67.87;38.37;96.82;;
50333;Laerm;36239;48.132;-1.210;2023-03-01T11:20:45;61.80;37.88;87.89;;
50333;Laerm;36239;48.132;-1.210;2023-03-01T11:23:13;65.57;39.21;91.28;;
50333;Laerm;36239;48.132;-1.210;2023-03-01T11:25:41;66.23;38.95;90.22;;
50333;Laerm;36239;48.132;-1.210;2023-03-01T11:28:09;64.46;37.52;86.27;;
50333;Laerm;36239;48.132;-1.210;2023-03-01T11:30:43;63.29;39.35;91.43;;
50333;Laerm;36239;48.132;-1.210;2023-03-01T11:36:01;64.76;39.08;85.39;;
50333;Laerm;36239;48.132;-1.210;2023-03-01T11:38:29;63.21;38.95;88.44;;
50333;Laerm;36239;48.132;-1.210;2023-03-01T11:41:13;62.77;39.08;87.29;;
50333;Laerm;36239;48.132;-1.210;2023-03-01T11:51:21;61.69;38.37;86.18;;
50333;Laerm;36239;48.132;-1.210;2023-03-01T11:59:27;56.98;37.12;78.80;;
50333;Laerm;36239;48.132;-1.210;2023-03-01T12:07:00;59.08;37.32;87.13;;
50333;Laerm;36239;48.132;-1.210;2023-03-01T12:09:39;60.39;37.12;84.73;;
50333;Laerm;36239;48.132;-1.210;2023-03-01T12:12:30;58.48;38.21;83.49;;
50333;Laerm;36239;48.132;-1.210;2023-03-01T12:20:12;65.06;38.67;87.69;;
50333;Laerm;36239;48.132;-1.210;2023-03-01T12:38:18;65.21;38.67;89.97;;
50333;Laerm;36239;48.132;-1.210;2023-03-01T12:49:01;68.80;39.21;95.75;;
50333;Laerm;36239;48.132;-1.210;2023-03-01T12:51:30;60.10;39.08;87.81;;
50333;Laerm;36239;48.132;-1.210;2023-03-01T12:53:57;53.94;39.21;80.61;;
50333;Laerm;36239;48.132;-1.210;2023-03-01T12:56:25;53.24;37.88;78.19;;
50333;Laerm;36239;48.132;-1.210;2023-03-01T13:06:52;70.27;40.23;98.74;;
50333;Laerm;36239;48.132;-1.210;2023-03-01T13:14:58;61.84;39.58;91.60;;
50333;Laerm;36239;48.132;-1.210;2023-03-01T13:17:31;66.40;40.03;90.14;;
50333;Laerm;36239;48.132;-1.210;2023-03-01T13:19:57;60.79;39.08;86.31;;
50333;Laerm;36239;48.132;-1.210;2023-03-01T13:22:28;54.79;38.81;74.77;;
50333;Laerm;36239;48.132;-1.210;2023-03-01T13:25:02;68.46;39.21;93.32;;
50333;Laerm;36239;48.132;-1.210;2023-03-01T13:27:28;67.23;39.34;91.60;;
50333;Laerm;36239;48.132;-1.210;2023-03-01T13:29:56;66.53;38.52;91.81;;
50333;Laerm;36239;48.132;-1.210;2023-03-01T13:32:29;60.88;39.21;89.04;;
50333;Laerm;36239;48.132;-1.210;2023-03-01T13:34:56;58.51;38.47;82.10;;
50333;Laerm;36239;48.132;-1.210;2023-03-01T13:37:29;60.09;39.34;86.59;;
50333;Laerm;36239;48.132;-1.210;2023-03-01T13:39:57;60.69;38.52;88.99;;
50333;Laerm;36239;48.132;-1.210;2023-03-01T13:42:38;64.24;38.95;90.23;;
50333;Laerm;36239;48.132;-1.210;2023-03-01T13:45:38;61.71;39.11;84.40;;
50333;Laerm;36239;48.132;-1.210;2023-03-01T13:48:01;58.21;38.95;82.19;;
50333;Laerm;36239;48.132;-1.210;2023-03-01T13:50:33;57.08;39.46;82.90;;
50333;Laerm;36239;48.132;-1.210;2023-03-01T13:53:03;69.43;39.81;94.37;;
50333;Laerm;36239;48.132;-1.210;2023-03-01T13:58:00;66.92;39.08;90.67;;
50333;Laerm;36239;48.132;-1.210;2023-03-01T14:00:37;72.84;37.70;102.25;;
50333;Laerm;36239;48.132;-1.210;2023-03-01T14:03:13;66.68;38.67;89.85;;
50333;Laerm;36239;48.132;-1.210;2023-03-01T14:05:41;66.86;38.81;92.92;;
50333;Laerm;36239;48.132;-1.210;2023-03-01T14:08:20;55.56;39.08;82.15;;
50333;Laerm;36239;48.132;-1.210;2023-03-01T14:11:13;63.71;40.43;88.57;;
50333;Laerm;36239;48.132;-1.210;2023-03-01T14:13:40;71.58;39.92;95.23;;
50333;Laerm;36239;48.132;-1.210;2023-03-01T14:16:18;62.63;39.70;90.09;;
50333;Laerm;36239;48.132;-1.210;2023-03-01T14:19:02;64.57;41.06;88.08;;
50333;Laerm;36239;48.132;-1.210;2023-03-01T14:21:35;61.68;39.58;85.38;;
50333;Laerm;36239;48.132;-1.210;2023-03-01T14:24:02;67.05;41.46;89.73;;
50333;Laerm;36239;48.132;-1.210;2023-03-01T14:26:29;62.25;40.53;88.42;;
50333;Laerm;36239;48.132;-1.210;2023-03-01T14:28:56;57.73;39.70;83.75;;
50333;Laerm;36239;48.132;-1.210;2023-03-01T14:31:34;64.08;39.92;92.48;;
50333;Laerm;36239;48.132;-1.210;2023-03-01T14:34:00;65.77;38.21;90.03;;
50333;Laerm;36239;48.132;-1.210;2023-03-01T14:36:27;61.64;40.23;85.46;;
50333;Laerm;36239;48.132;-1.210;2023-03-01T14:38:54;58.62;38.95;84.11;;
50333;Laerm;36239;48.132;-1.210;2023-03-01T14:43:46;55.46;38.81;80.25;;
50333;Laerm;36239;48.132;-1.210;2023-03-01T14:46:18;62.51;38.37;88.14;;
50333;Laerm;36239;48.132;-1.210;2023-03-01T14:48:44;54.09;38.52;79.62;;
50333;Laerm;36239;48.132;-1.210;2023-03-01T14:51:10;62.36;40.53;88.49;;
50333;Laerm;36239;48.132;-1.210;2023-03-01T14:53:37;55.32;39.46;79.79;;
50333;Laerm;36239;48.132;-1.210;2023-03-01T14:56:03;55.15;39.81;81.34;;
50333;Laerm;36239;48.132;-1.210;2023-03-01T14:58:31;75.94;40.53;99.96;;
50333;Laerm;36239;48.132;-1.210;2023-03-01T15:00:59;64.83;39.81;90.28;;
50333;Laerm;36239;48.132;-1.210;2023-03-01T15:03:27;64.25;40.13;91.73;;